Middletown, PA

2:45 AM EDT on July 22, 2017 (GMT -0400)
Downtown | | Change Station

Elev 338 ft 40.20 °N, 76.73 °W | Updated 31 seconds ago

Scattered Clouds
Scattered Clouds
76.6 °F
Feels Like 77 °F
N
0.0
Wind Variable Wind from SSE
Gusts 0.0 mph

Today
High -- | Low -- °F
--% Chance of Precip.
Yesterday
High -- | Low -- °F
Precip. -- in
Pressure 29.89 in
Visibility 8.0 miles
Clouds Scattered Clouds 25000 ft
Heat Index 77 °F
Dew Point 75 °F
Humidity 95%
Rainfall 0.00 in
Snow Depth Not available.
5:56 AM 8:30 PM
Waning Crescent, 2% visible
METAR KMDT 220556Z 31008KT 8SM SCT250 26/24 A2989 RMK AO2 SLP121 T02610239 10294 20261 55003
Pressure 29.89 in
Visibility 8.0 miles
Clouds Scattered Clouds 25000 ft
Heat Index 77 °F
Dew Point 75 °F
Humidity 95%
Rainfall 0.00 in
Snow Depth Not available.
5:56 AM 8:30 PM
Waning Crescent, 2% visible
METAR KMDT 220556Z 31008KT 8SM SCT250 26/24 A2989 RMK AO2 SLP121 T02610239 10294 20261 55003

Get Severe Weather Alerts

Thanks for signing up!

Be on the lookout for a verification email in your inbox.

You'll start receiving the daily forecast at 6 AM.

×

10-Day Weather Forecast

Almanac

Astronomy

Jul. 22, 2017 Rise Set
Actual Time
Civil Twilight
Nautical Twilight
Astronomical Twilight
Moon
Length of Visible Light
Length of Day
Tomorrow will be .
, % of the Moon is Illuminated

Today's Extremes

State Highs State Lows

Community

WunderPhotos

Category 6

Welcome to Category 6. This is the collective home for Weather Underground's featured writeups by Dr. Jeff Masters (right), Bob Henson (left), Chris Burt, and other regular contributors.

Nearby

Air Quality

  Air Quality AQ Index Pollutant
Not available.

Snow Depth

Station Depth Elevation

Earthquake Activity

City Distance Mag. Time & Date
Minimum magnitude displayed is 2.5.

Coastal Water Temperatures

Place Temperature

Stations

Nearby Weather Stations

Station Location Temp. Windchill Dew Point Humidity Wind Precip. Elev Updated Type
                   

Watches & Warnings

There are currently no watches in effect.